Time;durP1;ratioP1;P1;durP2;ratioP2;P2;SDS_P1;SDS_P2;PMS_P1;PMS_P2;Temp;Humidity;BMP_temperature;BMP_pressure;BME280_temperature;BME280_humidity;BME280_pressure;Samples;Min_cycle;Max_cycle;Signal;HPM_P1;HPM_P2
2022/01/24 00:01:53;;;;;;;29.70;23.20;;;;;;;8.74;54.69;103586.53;5145267;28;20417;-47
2022/01/24 00:04:27;;;;;;;30.10;22.05;;;;;;;8.74;54.63;103582.13;5140540;28;20481;-46
2022/01/24 00:06:59;;;;;;;31.80;23.50;;;;;;;8.77;54.83;103581.97;5145056;28;20486;-47
2022/01/24 00:09:32;;;;;;;33.60;23.13;;;;;;;8.78;54.63;103583.69;5140404;28;20424;-48
2022/01/24 00:12:16;;;;;;;32.25;22.40;;;;;;;8.80;54.67;103585.41;5144799;28;20423;-47
2022/01/24 00:15:07;;;;;;;32.72;23.48;;;;;;;8.77;54.63;103592.53;5137983;28;20772;-45
2022/01/24 00:17:42;;;;;;;34.60;23.35;;;;;;;8.77;54.67;103591.66;5136977;28;20426;-46
2022/01/24 00:28:45;;;;;;;30.08;21.00;;;;;;;8.76;54.89;103585.53;5135886;28;24901;-49
2022/01/24 00:31:18;;;;;;;30.13;21.77;;;;;;;8.78;54.65;103586.31;5128912;28;20477;-46
2022/01/24 00:33:50;;;;;;;30.02;22.35;;;;;;;8.76;54.67;103587.31;5142145;28;20440;-47
2022/01/24 00:36:24;;;;;;;31.85;22.60;;;;;;;8.79;54.54;103584.53;5140712;28;20417;-48
2022/01/24 00:38:56;;;;;;;28.98;23.13;;;;;;;8.77;54.71;103583.75;5134509;28;20408;-48
2022/01/24 00:41:30;;;;;;;31.45;23.45;;;;;;;8.71;54.74;103576.13;5133047;28;20599;-45
2022/01/24 00:44:26;;;;;;;29.17;22.60;;;;;;;8.70;54.75;103575.28;5135090;28;20489;-46
2022/01/24 00:47:02;;;;;;;28.45;22.45;;;;;;;8.70;54.83;103580.56;5136974;28;20418;-49
2022/01/24 00:52:58;;;;;;;28.52;22.33;;;;;;;8.70;54.85;103584.94;5135653;28;20434;-48
2022/01/24 00:53:13;;;;;;;30.00;22.45;;;;;;;8.68;54.97;103578.91;5146075;28;20449;-46
2022/01/24 00:55:48;;;;;;;31.67;23.33;;;;;;;8.68;54.77;103581.53;5140163;28;20419;-50
2022/01/24 00:58:20;;;;;;;31.58;22.67;;;;;;;8.67;54.90;103572.78;5136725;28;20423;-46
2022/01/24 01:00:53;;;;;;;33.10;23.67;;;;;;;8.68;54.92;103573.66;5138840;28;20529;-48
2022/01/24 01:03:25;;;;;;;30.35;21.52;;;;;;;8.65;54.80;103572.00;5139004;28;20410;-48
2022/01/24 01:06:06;;;;;;;28.08;20.70;;;;;;;8.50;54.71;103546.34;5135317;28;20504;-48
2022/01/24 01:20:03;;;;;;;30.15;24.00;;;;;;;8.69;54.76;103573.56;5134069;28;20418;-48
2022/01/24 01:22:35;;;;;;;33.13;24.35;;;;;;;8.69;54.61;103573.56;5134787;28;20901;-50
2022/01/24 01:25:10;;;;;;;34.07;23.40;;;;;;;8.70;54.68;103569.13;5145126;28;20618;-53
2022/01/24 01:27:45;;;;;;;32.03;24.52;;;;;;;8.67;54.73;103570.16;5142047;28;20480;-47
2022/01/24 01:30:21;;;;;;;31.25;24.27;;;;;;;8.66;54.85;103565.78;5144965;28;20619;-47
2022/01/24 01:33:01;;;;;;;33.55;24.50;;;;;;;8.64;54.78;103562.41;5144777;28;20498;-47
2022/01/24 01:35:47;;;;;;;29.80;23.30;;;;;;;8.65;54.83;103572.00;5134881;28;20764;-49
2022/01/24 01:52:36;;;;;;;30.97;24.47;;;;;;;8.60;54.76;103576.63;5139493;28;20877;-48
2022/01/24 01:55:16;;;;;;;33.42;23.40;;;;;;;8.61;54.64;103570.44;5144776;28;20904;-48
2022/01/24 01:57:49;;;;;;;34.63;24.20;;;;;;;8.64;54.71;103570.31;5138674;28;20496;-50
2022/01/24 02:00:22;;;;;;;29.40;23.58;;;;;;;8.63;54.74;103559.81;5146290;28;20753;-46
2022/01/24 02:02:54;;;;;;;31.55;23.85;;;;;;;8.59;54.82;103556.47;5144797;28;20898;-47
2022/01/24 02:05:27;;;;;;;33.93;23.70;;;;;;;8.59;54.92;103553.00;5140797;28;20529;-48
2022/01/24 02:07:59;;;;;;;32.67;23.33;;;;;;;8.59;54.99;103559.09;5139069;28;20900;-46
2022/01/24 02:10:34;;;;;;;31.33;24.27;;;;;;;8.59;54.77;103556.47;5145152;28;20473;-48
2022/01/24 02:13:08;;;;;;;36.35;24.95;;;;;;;8.58;54.99;103553.88;5136661;28;20438;-46
2022/01/24 02:15:50;;;;;;;40.38;24.60;;;;;;;8.49;54.74;103542.03;5147878;28;20458;-53
2022/01/24 02:18:31;;;;;;;39.75;27.85;;;;;;;8.38;54.83;103515.28;5139502;28;20789;-49
2022/01/24 02:21:11;;;;;;;36.92;27.33;;;;;;;8.57;55.02;103541.66;5132195;28;20420;-51
2022/01/24 02:23:49;;;;;;;36.55;26.80;;;;;;;8.54;54.80;103546.13;5138441;28;20433;-49
2022/01/24 02:26:22;;;;;;;36.17;26.33;;;;;;;8.54;54.93;103545.28;5145284;28;20440;-50
2022/01/24 02:29:05;;;;;;;42.10;30.57;;;;;;;8.52;54.96;103544.53;5140945;28;20874;-49
2022/01/24 02:31:42;;;;;;;38.95;28.60;;;;;;;8.45;55.19;103545.69;5141233;28;20415;-50
2022/01/24 02:34:39;;;;;;;44.28;31.75;;;;;;;8.41;55.29;103552.03;5148199;28;20517;-46
2022/01/24 02:37:16;;;;;;;43.38;31.20;;;;;;;8.34;55.38;103542.69;5137086;28;20411;-47
2022/01/24 02:39:55;;;;;;;41.67;31.15;;;;;;;8.35;55.44;103541.75;5144575;28;20448;-46
2022/01/24 02:48:25;;;;;;;43.80;31.17;;;;;;;8.34;55.60;103529.53;5143535;28;20415;-48
2022/01/24 02:51:27;;;;;;;40.13;28.33;;;;;;;8.34;55.68;103535.63;5137699;28;20419;-46
2022/01/24 02:53:59;;;;;;;45.20;30.35;;;;;;;8.33;55.81;103536.56;5139177;28;20437;-46
2022/01/24 02:56:33;;;;;;;41.67;29.73;;;;;;;8.34;55.85;103530.38;5146826;28;20788;-49
2022/01/24 02:59:06;;;;;;;41.80;28.63;;;;;;;8.36;55.74;103535.53;5128543;28;20440;-47
2022/01/24 03:01:42;;;;;;;37.67;27.50;;;;;;;8.34;55.83;103529.53;5145182;28;20866;-48
2022/01/24 03:04:15;;;;;;;36.65;25.13;;;;;;;8.29;55.85;103527.91;5143243;28;20430;-51
2022/01/24 03:06:47;;;;;;;36.70;25.35;;;;;;;8.25;55.97;103526.38;5141875;28;20498;-51
2022/01/24 03:09:22;;;;;;;34.10;25.17;;;;;;;8.26;56.14;103527.22;5141587;28;20412;-50
2022/01/24 03:12:06;;;;;;;37.88;27.60;;;;;;;8.29;55.99;103530.56;5138063;28;20918;-50
2022/01/24 03:14:38;;;;;;;35.80;24.48;;;;;;;8.29;56.01;103529.72;5138832;28;20422;-49
2022/01/24 03:17:11;;;;;;;30.55;23.10;;;;;;;8.26;55.99;103524.56;5138382;28;20417;-50
2022/01/24 03:19:43;;;;;;;34.20;22.80;;;;;;;8.25;56.06;103531.63;5147244;28;20421;-51
2022/01/24 03:22:16;;;;;;;32.28;21.80;;;;;;;8.13;56.14;103508.47;5145011;28;20425;-49
2022/01/24 03:24:49;;;;;;;31.58;22.63;;;;;;;8.26;55.92;103522.78;5141181;28;20473;-48
2022/01/24 03:27:23;;;;;;;29.77;21.58;;;;;;;8.26;56.05;103528.06;5141544;28;20491;-47
2022/01/24 03:29:55;;;;;;;29.58;21.33;;;;;;;8.23;56.06;103522.94;5133472;28;20422;-48
2022/01/24 03:32:28;;;;;;;30.05;21.58;;;;;;;8.24;55.95;103519.41;5129828;28;20495;-51
2022/01/24 03:35:00;;;;;;;32.20;23.00;;;;;;;8.25;56.15;103526.38;5141776;28;20511;-52
2022/01/24 03:37:32;;;;;;;26.83;19.53;;;;;;;8.25;55.93;103521.09;5138433;28;20469;-48
2022/01/24 03:40:07;;;;;;;28.75;20.95;;;;;;;8.22;56.00;103523.88;5141468;28;20551;-50
2022/01/24 03:42:41;;;;;;;31.38;20.80;;;;;;;8.20;55.96;103523.06;5144323;28;20506;-48
2022/01/24 03:45:15;;;;;;;28.55;20.75;;;;;;;8.12;56.05;103519.94;5133025;28;20909;-48
2022/01/24 03:48:02;;;;;;;27.83;20.48;;;;;;;8.05;55.92;103513.22;5146560;28;20423;-49
2022/01/24 03:50:35;;;;;;;28.27;21.30;;;;;;;8.01;56.02;103507.25;5130985;28;20431;-46
2022/01/24 03:53:07;;;;;;;31.23;21.70;;;;;;;8.02;56.09;103515.97;5143410;28;20521;-46
2022/01/24 03:55:40;;;;;;;29.83;21.23;;;;;;;7.96;55.98;103505.72;5134019;28;20420;-47
2022/01/24 03:58:14;;;;;;;28.35;20.85;;;;;;;8.00;56.08;103521.34;5138910;28;20420;-50
2022/01/24 04:00:46;;;;;;;30.27;21.35;;;;;;;8.03;55.95;103512.44;5143875;28;20462;-49
2022/01/24 04:03:19;;;;;;;28.58;20.85;;;;;;;7.92;55.83;103498.91;5143713;28;20414;-56
2022/01/24 04:05:51;;;;;;;31.48;20.45;;;;;;;7.98;55.71;103517.06;5141914;28;20838;-48
2022/01/24 04:08:24;;;;;;;28.13;19.97;;;;;;;7.93;55.74;103519.00;5144697;28;20815;-47
2022/01/24 04:10:57;;;;;;;27.52;20.42;;;;;;;7.94;55.75;103521.59;5136630;28;20998;-49
2022/01/24 04:13:34;;;;;;;31.10;22.70;;;;;;;7.93;55.72;103534.81;5141010;28;20963;-47
2022/01/24 04:19:16;;;;;;;29.08;21.60;;;;;;;8.01;55.62;103527.44;5138243;28;20438;-47
2022/01/24 04:21:49;;;;;;;28.42;22.30;;;;;;;8.05;55.42;103523.75;5136685;28;20454;-52
2022/01/24 04:24:24;;;;;;;30.88;21.73;;;;;;;8.05;55.35;103510.59;5145250;28;20417;-48
2022/01/24 04:26:56;;;;;;;32.28;21.48;;;;;;;8.10;55.09;103505.97;5141369;28;20406;-54
2022/01/24 04:29:30;;;;;;;27.70;21.05;;;;;;;8.09;55.19;103520.94;5137307;28;20406;-47
2022/01/24 04:32:03;;;;;;;30.33;20.93;;;;;;;8.00;55.12;103516.06;5144236;28;20564;-47
2022/01/24 04:34:36;;;;;;;29.35;20.98;;;;;;;8.02;55.23;103516.88;5142904;28;20414;-48
2022/01/24 04:37:08;;;;;;;33.83;22.38;;;;;;;7.99;55.11;103508.22;5142351;28;20434;-47
2022/01/24 04:39:40;;;;;;;30.35;22.27;;;;;;;8.03;55.18;103504.56;5139889;28;20437;-47
2022/01/24 04:42:18;;;;;;;32.72;23.08;;;;;;;8.10;54.95;103511.25;5143911;28;20777;-48
2022/01/24 04:45:09;;;;;;;30.42;21.98;;;;;;;8.13;54.79;103510.25;5141954;28;20430;-47
2022/01/24 04:50:24;;;;;;;32.00;21.33;;;;;;;8.07;54.85;103506.13;5133756;28;20524;-49
2022/01/24 04:50:56;;;;;;;30.38;21.25;;;;;;;8.00;55.03;103502.06;5145125;28;20422;-48
2022/01/24 04:56:15;;;;;;;31.98;22.15;;;;;;;7.97;55.07;103494.31;5128914;28;20904;-48
2022/01/24 04:58:48;;;;;;;34.83;22.70;;;;;;;7.94;54.88;103497.91;5131666;28;20419;-49
2022/01/24 05:01:22;;;;;;;28.45;20.27;;;;;;;7.96;54.91;103492.56;5139407;28;20429;-47
2022/01/24 05:03:55;;;;;;;32.35;22.65;;;;;;;7.96;55.05;103492.56;5145342;28;20432;-47
2022/01/24 05:06:27;;;;;;;32.40;21.30;;;;;;;7.95;54.87;103490.88;5137935;28;20421;-51
2022/01/24 05:09:00;;;;;;;35.72;22.25;;;;;;;8.00;54.73;103494.16;5145520;28;20407;-49
2022/01/24 05:11:39;;;;;;;34.28;22.35;;;;;;;8.02;54.71;103497.56;5140639;28;20955;-50
2022/01/24 05:25:41;;;;;;;31.70;22.08;;;;;;;8.07;54.59;103506.13;5136383;28;20482;-47
2022/01/24 05:28:14;;;;;;;32.10;23.45;;;;;;;8.09;54.43;103507.78;5133368;28;20439;-54
2022/01/24 05:30:47;;;;;;;36.03;22.37;;;;;;;8.08;54.54;103499.91;5142490;28;20381;-47
2022/01/24 05:33:23;;;;;;;32.97;23.27;;;;;;;8.05;54.53;103503.56;5148589;28;20415;-50
2022/01/24 05:35:56;;;;;;;35.33;23.83;;;;;;;7.92;54.63;103486.59;5147983;28;20920;-48
2022/01/24 05:38:28;;;;;;;31.83;22.80;;;;;;;7.96;54.50;103498.72;5144113;28;21465;-47
2022/01/24 05:41:01;;;;;;;34.13;22.25;;;;;;;7.93;54.63;103493.59;5147735;28;20500;-49
2022/01/24 05:43:35;;;;;;;31.65;23.52;;;;;;;7.96;54.60;103497.84;5150535;28;20505;-51
2022/01/24 05:46:07;;;;;;;33.70;22.30;;;;;;;8.00;54.44;103505.53;5142481;28;20520;-52
2022/01/24 05:48:41;;;;;;;34.67;24.03;;;;;;;8.03;54.38;103504.56;5147822;28;20558;-47
2022/01/24 05:51:13;;;;;;;34.35;23.60;;;;;;;8.01;54.39;103512.50;5146647;28;20419;-49
2022/01/24 05:53:46;;;;;;;33.45;22.92;;;;;;;8.06;54.33;103509.69;5148473;28;20581;-50
2022/01/24 05:56:18;;;;;;;36.47;24.90;;;;;;;7.81;54.49;103479.19;5140959;28;20833;-47
2022/01/24 05:58:51;;;;;;;33.83;23.75;;;;;;;8.09;54.29;103514.81;5142994;28;20458;-47
2022/01/24 06:01:23;;;;;;;35.67;23.65;;;;;;;8.10;54.10;103508.63;5133795;28;20511;-45
2022/01/24 06:03:57;;;;;;;35.27;24.57;;;;;;;8.12;54.13;103504.16;5143892;28;20538;-46
2022/01/24 06:06:30;;;;;;;37.15;25.08;;;;;;;8.13;54.25;103505.84;5139460;28;20539;-46
2022/01/24 06:09:02;;;;;;;34.47;25.00;;;;;;;8.12;54.30;103503.31;5148226;28;20490;-47
2022/01/24 06:11:34;;;;;;;37.75;26.25;;;;;;;8.07;54.31;103501.72;5141982;28;20423;-46
2022/01/24 06:14:07;;;;;;;36.92;24.75;;;;;;;8.11;54.16;103507.69;5142201;28;20792;-49
2022/01/24 06:16:40;;;;;;;34.72;24.92;;;;;;;8.05;54.04;103500.06;5140382;28;20442;-52
2022/01/24 06:19:14;;;;;;;40.17;26.90;;;;;;;8.09;54.14;103505.13;5142119;28;20436;-54
2022/01/24 06:21:47;;;;;;;35.10;24.65;;;;;;;8.05;54.16;103493.03;5143556;28;22046;-48
2022/01/24 06:24:19;;;;;;;40.33;26.40;;;;;;;8.12;54.09;103505.94;5143817;28;20496;-50
2022/01/24 06:26:51;;;;;;;37.67;26.40;;;;;;;8.08;54.15;103507.81;5133277;28;20485;-46
2022/01/24 06:29:24;;;;;;;41.90;27.40;;;;;;;8.05;54.21;103503.56;5142942;28;20540;-49
2022/01/24 06:31:56;;;;;;;38.22;25.52;;;;;;;8.03;54.29;103510.66;5152268;28;20403;-47
2022/01/24 06:34:30;;;;;;;40.47;25.83;;;;;;;8.02;54.24;103513.34;5140633;28;20459;-49
2022/01/24 06:37:03;;;;;;;40.58;25.73;;;;;;;7.96;54.10;103508.34;5145385;28;20505;-47
2022/01/24 06:39:35;;;;;;;40.20;26.75;;;;;;;8.05;54.11;103514.09;5146397;28;20429;-49
2022/01/24 06:42:13;;;;;;;42.60;27.52;;;;;;;8.06;53.96;103514.94;5137700;28;20450;-48
2022/01/24 06:44:47;;;;;;;39.83;25.65;;;;;;;7.90;54.08;103495.47;5145567;28;20454;-46
2022/01/24 06:47:20;;;;;;;41.05;26.55;;;;;;;8.05;54.12;103519.38;5135581;28;20766;-47
2022/01/24 06:49:54;;;;;;;43.08;28.20;;;;;;;8.01;54.13;103514.28;5136045;28;20497;-45
2022/01/24 06:52:26;;;;;;;41.33;26.25;;;;;;;7.97;54.22;103510.09;5145096;28;20415;-49
2022/01/24 06:54:59;;;;;;;41.80;28.17;;;;;;;8.04;54.01;103522.03;5137191;28;20974;-44
2022/01/24 06:57:31;;;;;;;40.90;27.10;;;;;;;7.85;54.20;103493.06;5147593;28;20528;-46
2022/01/24 07:00:07;;;;;;;40.88;28.10;;;;;;;7.95;54.25;103512.78;5138892;28;20565;-50
2022/01/24 07:02:45;;;;;;;43.50;28.60;;;;;;;7.95;54.08;103549.63;5142614;28;20491;-48
2022/01/24 07:05:19;;;;;;;42.67;26.33;;;;;;;8.00;54.15;103536.28;5144189;28;20524;-50
2022/01/24 07:07:51;;;;;;;39.95;26.55;;;;;;;8.02;54.20;103534.41;5139701;28;20908;-50
2022/01/24 07:10:24;;;;;;;38.35;27.52;;;;;;;7.95;54.05;103532.97;5143673;28;20502;-49
2022/01/24 07:12:57;;;;;;;40.72;27.70;;;;;;;8.05;54.07;103540.41;5146173;28;20421;-47
2022/01/24 07:15:34;;;;;;;39.28;26.85;;;;;;;8.00;53.88;103536.28;5135187;28;20509;-47
2022/01/24 07:20:59;;;;;;;48.13;30.70;;;;;;;7.87;53.94;103512.28;5130909;28;20424;-45
2022/01/24 07:23:32;;;;;;;42.00;28.52;;;;;;;8.02;54.13;103540.56;5126813;28;20416;-45
2022/01/24 07:26:05;;;;;;;41.93;27.97;;;;;;;8.03;54.01;103542.25;5133651;28;20530;-46
2022/01/24 07:28:37;;;;;;;45.22;28.13;;;;;;;8.00;53.92;103533.63;5133821;28;20424;-46
2022/01/24 07:31:09;;;;;;;47.55;29.08;;;;;;;8.03;54.03;103542.25;5120547;28;20427;-48
2022/01/24 07:33:42;;;;;;;44.33;29.30;;;;;;;7.91;54.10;103542.78;5129768;28;20434;-48
2022/01/24 07:36:16;;;;;;;46.37;29.90;;;;;;;7.97;54.15;103544.31;5132410;28;20460;-51
2022/01/24 07:38:48;;;;;;;47.92;32.95;;;;;;;7.98;54.08;103543.38;5133380;28;20551;-51
2022/01/24 07:41:24;;;;;;;44.25;29.88;;;;;;;7.97;53.89;103547.78;5126033;28;20506;-48
2022/01/24 07:43:59;;;;;;;45.92;29.73;;;;;;;7.95;54.09;103543.50;5134985;28;20423;-47
2022/01/24 07:46:35;;;;;;;41.85;29.50;;;;;;;7.94;54.04;103549.69;5135574;28;20483;-46
2022/01/24 07:49:10;;;;;;;43.13;30.40;;;;;;;7.94;54.22;103547.06;5139269;28;20903;-45
2022/01/24 07:51:44;;;;;;;45.45;30.98;;;;;;;7.89;54.25;103549.03;5134115;28;20435;-47
2022/01/24 07:54:17;;;;;;;47.75;32.80;;;;;;;7.91;54.04;103542.78;5130057;28;21953;-45
2022/01/24 07:56:49;;;;;;;48.90;31.85;;;;;;;7.94;54.04;103547.06;5132256;28;21272;-44
2022/01/24 07:59:22;;;;;;;47.33;30.02;;;;;;;7.92;54.01;103544.47;5127310;28;20414;-44
2022/01/24 08:01:54;;;;;;;47.73;30.43;;;;;;;7.92;54.09;103552.38;5133195;28;20419;-46
2022/01/24 08:04:26;;;;;;;48.15;30.75;;;;;;;7.86;54.20;103550.84;5136446;28;20440;-46
2022/01/24 08:07:00;;;;;;;44.92;29.85;;;;;;;7.85;54.30;103549.16;5120665;28;20433;-45
2022/01/24 08:09:33;;;;;;;50.20;30.20;;;;;;;7.82;54.30;103551.91;5133058;28;20573;-44
2022/01/24 08:12:07;;;;;;;46.38;31.48;;;;;;;7.67;54.36;103543.81;5135101;28;20430;-49
2022/01/24 08:14:39;;;;;;;49.95;30.73;;;;;;;7.78;54.29;103558.25;5128940;28;20418;-47
2022/01/24 08:17:12;;;;;;;50.90;32.75;;;;;;;7.81;54.44;103568.63;5132535;28;20497;-47
2022/01/24 08:19:44;;;;;;;46.35;30.60;;;;;;;7.83;54.38;103566.81;5126008;28;20420;-50
2022/01/24 08:22:18;;;;;;;51.77;34.53;;;;;;;7.84;54.37;103576.41;5128864;28;20524;-48
2022/01/24 08:24:51;;;;;;;53.88;35.75;;;;;;;7.85;54.20;103575.47;5119117;28;20906;-49
2022/01/24 08:27:25;;;;;;;59.22;38.40;;;;;;;7.83;54.52;103571.19;5134164;28;21161;-47
2022/01/24 08:29:57;;;;;;;58.60;39.27;;;;;;;7.81;54.50;103566.00;5128393;28;20487;-47
2022/01/24 08:32:30;;;;;;;58.05;37.72;;;;;;;7.83;54.60;103566.81;5127677;28;20493;-46
2022/01/24 08:35:03;;;;;;;57.70;39.33;;;;;;;7.86;54.49;103565.78;5131583;28;20522;-49
2022/01/24 08:37:37;;;;;;;65.50;39.13;;;;;;;7.87;54.54;103562.25;5135433;28;20459;-49
2022/01/24 08:40:19;;;;;;;56.95;38.17;;;;;;;7.85;54.65;103567.56;5137272;28;20517;-50
2022/01/24 08:42:58;;;;;;;60.72;41.33;;;;;;;7.80;54.74;103556.41;5124616;28;20538;-50
2022/01/24 08:45:48;;;;;;;60.78;41.67;;;;;;;7.72;54.64;103563.75;5131860;28;20434;-49
2022/01/24 08:48:22;;;;;;;58.70;39.93;;;;;;;7.72;54.88;103558.50;5135082;28;20852;-48
2022/01/24 08:50:57;;;;;;;63.17;43.17;;;;;;;7.67;55.01;103555.19;5132421;28;20928;-49
2022/01/24 08:53:34;;;;;;;64.10;41.58;;;;;;;7.76;54.99;103562.69;5126167;28;20585;-49
2022/01/24 08:56:10;;;;;;;62.58;41.58;;;;;;;7.60;54.96;103543.22;5127364;28;20437;-48
2022/01/24 08:58:43;;;;;;;63.72;41.72;;;;;;;7.79;54.99;103569.63;5124380;28;20441;-49
2022/01/24 09:01:15;;;;;;;66.20;44.13;;;;;;;7.78;55.13;103566.13;5134902;28;20572;-52
2022/01/24 09:03:48;;;;;;;63.35;43.47;;;;;;;7.79;55.11;103574.88;5125283;28;20416;-49
2022/01/24 09:06:22;;;;;;;68.10;45.67;;;;;;;7.77;55.14;103574.97;5125492;28;20438;-49
2022/01/24 09:08:59;;;;;;;65.00;44.33;;;;;;;7.77;55.07;103577.59;5126808;28;21043;-45
2022/01/24 09:11:35;;;;;;;66.10;44.60;;;;;;;7.68;55.17;103577.97;5143629;28;20521;-49
2022/01/24 09:14:10;;;;;;;71.50;45.83;;;;;;;7.67;55.25;103567.50;5141543;28;20463;-47
2022/01/24 09:16:43;;;;;;;69.78;47.15;;;;;;;7.70;55.20;103570.00;5137424;28;20443;-48
2022/01/24 09:19:15;;;;;;;64.47;44.90;;;;;;;7.64;55.26;103550.06;5144073;28;20927;-48
2022/01/24 09:21:48;;;;;;;74.57;45.70;;;;;;;7.53;55.19;103536.53;5139536;28;20439;-49
2022/01/24 09:24:21;;;;;;;69.30;44.57;;;;;;;7.80;55.07;103580.09;5131190;28;21071;-48
2022/01/24 09:26:54;;;;;;;64.80;43.95;;;;;;;7.86;55.06;103581.59;5115949;28;20430;-49
2022/01/24 09:29:30;;;;;;;65.40;43.83;;;;;;;7.88;54.98;103579.75;5121704;28;20496;-50
2022/01/24 09:32:04;;;;;;;59.03;41.53;;;;;;;7.66;55.15;103564.00;5133573;28;20542;-50
2022/01/24 09:34:36;;;;;;;75.22;50.13;;;;;;;7.84;55.13;103584.28;5135704;28;20420;-45
2022/01/24 09:37:09;;;;;;;74.25;50.33;;;;;;;7.83;55.00;103587.84;5123652;28;20522;-46
2022/01/24 09:39:43;;;;;;;80.57;51.10;;;;;;;7.84;55.17;103591.34;5119186;28;20794;-47
2022/01/24 09:42:16;;;;;;;77.60;50.83;;;;;;;7.82;55.17;103586.13;5120682;28;20864;-46
2022/01/24 09:44:49;;;;;;;73.78;48.80;;;;;;;7.83;55.15;103579.06;5131344;28;20421;-45
2022/01/24 09:47:21;;;;;;;70.03;47.88;;;;;;;7.77;55.13;103577.59;5130938;28;20428;-46
2022/01/24 09:49:54;;;;;;;72.70;49.00;;;;;;;7.78;55.27;103579.28;5131333;28;20423;-45
2022/01/24 09:52:27;;;;;;;79.57;50.45;;;;;;;7.66;55.04;103564.00;5141052;28;20469;-48
2022/01/24 09:55:01;;;;;;;85.85;52.38;;;;;;;7.83;55.12;103584.34;5139668;28;20430;-48
2022/01/24 09:57:34;;;;;;;76.28;50.85;;;;;;;7.86;55.02;103578.94;5142870;28;20430;-50
2022/01/24 10:00:11;;;;;;;73.88;49.25;;;;;;;7.86;55.01;103579.78;5145690;28;20503;-47
2022/01/24 10:02:46;;;;;;;74.13;49.78;;;;;;;7.92;54.96;103585.72;5139836;28;20521;-45
2022/01/24 10:05:21;;;;;;;73.68;48.83;;;;;;;7.93;54.89;103583.06;5136444;28;20930;-48
2022/01/24 10:07:57;;;;;;;72.13;48.25;;;;;;;7.93;54.98;103588.31;5139743;28;20435;-51
2022/01/24 10:10:38;;;;;;;68.00;47.28;;;;;;;7.80;54.98;103566.06;5136615;28;20410;-51
2022/01/24 10:16:31;;;;;;;82.73;53.30;;;;;;;7.85;55.04;103582.50;5139429;28;20438;-51
2022/01/24 10:19:11;;;;;;;69.50;48.20;;;;;;;7.80;55.00;103574.81;5133789;28;20418;-46
2022/01/24 10:21:46;;;;;;;69.60;46.55;;;;;;;7.80;55.00;103582.72;5147586;28;20844;-50
2022/01/24 10:24:37;;;;;;;77.05;49.97;;;;;;;7.81;54.93;103587.06;5130526;28;20913;-47
2022/01/24 10:27:15;;;;;;;71.65;49.05;;;;;;;7.82;55.01;103588.75;5129545;28;20523;-50
2022/01/24 10:29:51;;;;;;;75.60;50.33;;;;;;;7.86;54.91;103577.16;5129416;28;20401;-49
2022/01/24 10:32:39;;;;;;;74.05;50.30;;;;;;;7.92;54.85;103580.47;5122950;28;20434;-46
2022/01/24 10:35:36;;;;;;;75.27;50.90;;;;;;;7.94;54.72;103573.38;5132329;28;20834;-46
2022/01/24 10:38:28;;;;;;;78.55;53.05;;;;;;;8.00;54.61;103586.28;5129522;28;20467;-49
2022/01/24 10:41:17;;;;;;;77.93;52.22;;;;;;;7.99;54.66;103582.78;5136716;28;20421;-49
2022/01/24 10:43:56;;;;;;;79.85;51.20;;;;;;;8.01;54.60;103580.09;5129318;28;20431;-49
2022/01/24 10:46:29;;;;;;;79.63;53.30;;;;;;;7.42;54.69;103486.16;5129578;28;20416;-50
2022/01/24 10:49:06;;;;;;;79.88;52.97;;;;;;;8.04;54.56;103579.94;5143308;28;20413;-50
2022/01/24 10:51:44;;;;;;;78.97;54.42;;;;;;;8.05;54.57;103579.00;5141783;28;20587;-48
2022/01/24 10:54:27;;;;;;;78.47;54.03;;;;;;;8.03;54.42;103583.50;5140920;28;20419;-52
2022/01/24 10:57:00;;;;;;;74.65;51.85;;;;;;;8.05;54.52;103579.91;5132596;28;20513;-48
2022/01/24 10:59:36;;;;;;;81.75;53.40;;;;;;;8.12;54.51;103572.59;5139929;28;21002;-46
2022/01/24 11:02:09;;;;;;;80.65;53.05;;;;;;;8.22;54.32;103573.03;5140053;28;20720;-45
2022/01/24 11:04:41;;;;;;;81.43;52.10;;;;;;;8.28;54.13;103572.78;5139749;28;20815;-51
2022/01/24 11:07:14;;;;;;;73.63;49.83;;;;;;;8.30;54.01;103569.16;5134775;28;20434;-49
2022/01/24 11:09:47;;;;;;;80.85;52.78;;;;;;;8.35;54.02;103568.06;5131857;28;20442;-50
2022/01/24 11:12:23;;;;;;;80.60;51.40;;;;;;;8.32;53.91;103556.75;5135072;28;20470;-49
2022/01/24 11:14:57;;;;;;;76.35;53.17;;;;;;;8.39;54.02;103562.63;5134124;28;20977;-49
2022/01/24 11:17:30;;;;;;;73.68;50.78;;;;;;;8.38;53.92;103565.31;5137675;28;20754;-52
2022/01/24 11:20:04;;;;;;;73.38;50.50;;;;;;;8.34;53.74;103554.06;5138359;28;20422;-49
2022/01/24 11:22:42;;;;;;;79.50;51.63;;;;;;;8.34;53.60;103553.22;5142880;28;20454;-46
2022/01/24 11:25:16;;;;;;;71.68;49.85;;;;;;;8.45;53.70;103553.59;5142689;28;20442;-50
2022/01/24 11:27:49;;;;;;;71.95;49.05;;;;;;;8.44;53.49;103554.53;5134535;28;20493;-55
2022/01/24 11:30:29;;;;;;;74.65;50.53;;;;;;;8.44;53.55;103551.91;5136724;28;20780;-49
2022/01/24 11:33:05;;;;;;;68.35;47.80;;;;;;;8.48;53.60;103551.69;5137656;28;20414;-50
2022/01/24 11:35:43;;;;;;;76.03;50.13;;;;;;;8.53;53.47;103549.69;5140721;28;20434;-46
2022/01/24 11:38:30;;;;;;;74.75;49.78;;;;;;;8.52;53.36;103539.25;5135623;28;20426;-51
2022/01/24 11:41:08;;;;;;;76.90;51.17;;;;;;;8.51;53.43;103546.28;5126887;28;20915;-48
2022/01/24 11:43:45;;;;;;;72.27;50.40;;;;;;;8.52;53.40;103547.16;5139989;28;20990;-46
2022/01/24 11:46:37;;;;;;;77.47;51.53;;;;;;;8.48;53.31;103532.41;5139766;28;22065;-47
2022/01/24 11:49:12;;;;;;;73.93;50.85;;;;;;;8.58;53.19;103548.63;5131662;28;20416;-48
2022/01/24 11:51:49;;;;;;;76.70;52.42;;;;;;;8.55;53.29;103547.00;5133651;28;20534;-49
2022/01/24 11:54:32;;;;;;;111.60;76.10;;;;;;;8.59;53.11;103551.19;5138708;28;20442;-49
2022/01/24 11:57:35;;;;;;;73.20;51.55;;;;;;;8.53;53.32;103548.84;5135745;28;20430;-53
2022/01/24 12:00:23;;;;;;;79.03;53.35;;;;;;;8.60;53.23;103545.00;5132807;28;20426;-54
2022/01/24 12:02:59;;;;;;;77.07;51.97;;;;;;;8.62;53.04;103535.25;5133867;28;20406;-51
2022/01/24 12:05:43;;;;;;;68.20;47.10;;;;;;;8.56;53.10;103535.53;5133462;28;21064;-50
2022/01/24 12:08:31;;;;;;;73.50;50.13;;;;;;;8.62;53.04;103539.69;5130251;28;20434;-49
2022/01/24 12:11:18;;;;;;;73.32;50.55;;;;;;;8.53;53.12;103535.69;5129376;28;20422;-52
2022/01/24 12:13:54;;;;;;;71.70;48.97;;;;;;;8.52;53.11;103540.09;5133703;28;20540;-49
2022/01/24 12:16:37;;;;;;;79.05;51.00;;;;;;;8.44;53.08;103528.19;5137070;28;20790;-48
2022/01/24 12:19:12;;;;;;;74.50;50.08;;;;;;;8.48;53.04;103527.13;5139011;28;20445;-49
2022/01/24 12:21:45;;;;;;;72.00;48.65;;;;;;;8.55;52.98;103533.84;5137245;28;20488;-46
2022/01/24 12:24:17;;;;;;;80.13;51.25;;;;;;;8.52;53.03;103520.81;5136304;28;20570;-50
2022/01/24 12:27:03;;;;;;;76.18;50.83;;;;;;;8.49;52.91;103520.94;5126709;28;20412;-48
2022/01/24 12:29:42;;;;;;;66.47;47.25;;;;;;;8.52;52.83;103533.97;5129403;28;20427;-51
2022/01/24 12:32:23;;;;;;;70.03;48.50;;;;;;;8.37;52.78;103503.03;5135492;28;20541;-51
2022/01/24 12:34:57;;;;;;;72.03;48.90;;;;;;;8.51;52.70;103521.72;5134066;28;20897;-47
2022/01/24 12:37:31;;;;;;;73.38;49.95;;;;;;;8.61;52.67;103527.41;5137046;28;20422;-46
2022/01/24 12:40:08;;;;;;;70.30;50.25;;;;;;;8.67;52.64;103512.19;5129019;28;20443;-52
2022/01/24 12:42:51;;;;;;;72.65;49.10;;;;;;;8.75;52.55;103515.31;5139662;28;20426;-48
2022/01/24 12:48:19;;;;;;;76.28;52.03;;;;;;;8.76;52.45;103501.22;5137839;28;20486;-45
2022/01/24 12:50:54;;;;;;;75.45;50.67;;;;;;;8.87;52.33;103505.13;5137951;28;20572;-48
2022/01/24 12:53:27;;;;;;;72.15;49.13;;;;;;;8.88;52.25;103494.50;5129171;28;20428;-46
2022/01/24 12:56:02;;;;;;;71.10;49.17;;;;;;;8.90;52.24;103507.63;5137505;28;20449;-48
2022/01/24 12:58:37;;;;;;;74.88;49.83;;;;;;;8.88;52.22;103498.91;5136078;28;20425;-47
2022/01/24 13:01:22;;;;;;;75.43;48.70;;;;;;;8.96;52.06;103502.06;5134769;28;20928;-48
2022/01/24 13:03:58;;;;;;;73.25;49.55;;;;;;;9.09;51.90;103507.56;5139023;28;20497;-45